createdAt,value
2019-06-20T00:00:48.279Z,22.00
2019-06-20T00:01:53.086Z,22.00
2019-06-20T00:02:57.331Z,22.00
2019-06-20T00:04:02.039Z,22.10
2019-06-20T00:05:09.101Z,22.00
2019-06-20T00:06:15.489Z,22.00
2019-06-20T00:07:19.669Z,22.00
2019-06-20T00:08:24.390Z,22.00
2019-06-20T00:09:28.631Z,22.00
2019-06-20T00:10:33.276Z,22.00
2019-06-20T00:11:37.625Z,22.00
2019-06-20T00:12:42.307Z,22.00
2019-06-20T00:13:46.466Z,22.00
2019-06-20T00:14:51.180Z,22.00
2019-06-20T00:15:55.841Z,21.90
2019-06-20T00:17:00.607Z,21.90
2019-06-20T00:18:04.904Z,21.90
2019-06-20T00:19:09.668Z,21.90
2019-06-20T00:20:14.569Z,21.90
2019-06-20T00:21:19.244Z,21.90
2019-06-20T00:22:23.397Z,21.90
2019-06-20T00:23:28.103Z,21.90
2019-06-20T00:24:32.268Z,21.90
2019-06-20T00:25:36.932Z,21.90
2019-06-20T00:26:41.126Z,21.90
2019-06-20T00:27:46.278Z,21.80
2019-06-20T00:28:52.006Z,21.90
2019-06-20T00:29:56.752Z,21.90
2019-06-20T00:31:04.143Z,21.80
2019-06-20T00:32:10.048Z,21.80
2019-06-20T00:33:21.376Z,21.80
2019-06-20T00:34:27.215Z,21.80
2019-06-20T00:35:33.898Z,21.80
2019-06-20T00:36:38.637Z,21.80
2019-06-20T00:37:42.895Z,21.80
2019-06-20T00:38:47.712Z,21.80
2019-06-20T00:39:51.910Z,21.80
2019-06-20T00:40:59.634Z,21.70
2019-06-20T00:42:02.654Z,21.80
2019-06-20T00:43:18.025Z,21.70
2019-06-20T00:44:20.616Z,21.70
2019-06-20T00:45:25.615Z,21.70
2019-06-20T00:46:31.354Z,21.70
2019-06-20T00:47:36.333Z,21.70
2019-06-20T00:48:43.582Z,21.70
2019-06-20T00:49:52.453Z,21.70
2019-06-20T00:50:56.808Z,21.70
2019-06-20T00:52:01.575Z,21.70
2019-06-20T00:53:08.357Z,21.70
2019-06-20T00:54:13.161Z,21.70
2019-06-20T00:55:20.278Z,21.70
2019-06-20T00:56:25.029Z,21.70
2019-06-20T00:57:29.336Z,21.70
2019-06-20T00:58:34.101Z,21.70
2019-06-20T00:59:38.248Z,21.60
2019-06-20T01:00:43.150Z,21.60
2019-06-20T01:01:47.251Z,21.60
2019-06-20T01:02:52.074Z,21.60
2019-06-20T01:03:56.256Z,21.60
2019-06-20T01:05:00.924Z,21.60
2019-06-20T01:06:05.114Z,21.60
2019-06-20T01:07:09.918Z,21.60
2019-06-20T01:08:15.579Z,21.60
2019-06-20T01:09:20.142Z,21.60
2019-06-20T01:10:24.272Z,21.60
2019-06-20T01:11:29.056Z,21.60
2019-06-20T01:12:36.057Z,21.60
2019-06-20T01:13:40.748Z,21.60
2019-06-20T01:14:44.877Z,21.50
2019-06-20T01:15:50.683Z,21.50
2019-06-20T01:16:54.823Z,21.50
2019-06-20T01:17:59.550Z,21.50
2019-06-20T01:19:03.701Z,21.50
2019-06-20T01:20:09.792Z,21.50
2019-06-20T01:21:13.885Z,21.50
2019-06-20T01:22:18.697Z,21.50
2019-06-20T01:23:22.776Z,21.50
2019-06-20T01:24:27.622Z,21.50
2019-06-20T01:25:37.212Z,21.50
2019-06-20T01:26:41.962Z,21.50
2019-06-20T01:27:46.167Z,21.50
2019-06-20T01:28:50.978Z,21.50
2019-06-20T01:29:56.485Z,21.50
2019-06-20T01:31:01.451Z,21.50
2019-06-20T01:32:05.532Z,21.40
2019-06-20T01:33:10.330Z,21.50
2019-06-20T01:34:14.384Z,21.40
2019-06-20T01:35:19.291Z,21.40
2019-06-20T01:36:23.473Z,21.40
2019-06-20T01:37:28.086Z,21.40
2019-06-20T01:38:32.158Z,21.40
2019-06-20T01:39:36.847Z,21.40
2019-06-20T01:40:40.989Z,21.40
2019-06-20T01:41:45.718Z,21.30
2019-06-20T01:42:49.869Z,21.30
2019-06-20T01:43:54.519Z,21.40
2019-06-20T01:44:58.576Z,21.30
2019-06-20T01:46:03.328Z,21.30
2019-06-20T01:47:07.447Z,21.30
2019-06-20T01:48:12.109Z,21.40
2019-06-20T01:49:16.186Z,21.30
2019-06-20T01:50:21.468Z,21.30
2019-06-20T01:51:25.541Z,21.30
2019-06-20T01:52:30.421Z,21.30
2019-06-20T01:53:34.475Z,21.30
2019-06-20T01:54:39.072Z,21.30
2019-06-20T01:55:43.229Z,21.30
2019-06-20T01:56:47.962Z,21.30
2019-06-20T01:57:52.069Z,21.30
2019-06-20T01:58:56.680Z,21.20
2019-06-20T02:00:00.783Z,21.20
2019-06-20T02:01:05.984Z,21.20
2019-06-20T02:02:10.121Z,21.20
2019-06-20T02:03:15.871Z,21.20
2019-06-20T02:04:19.930Z,21.20
2019-06-20T02:05:25.906Z,21.20
2019-06-20T02:06:30.045Z,21.20
2019-06-20T02:07:34.764Z,21.20
2019-06-20T02:08:38.934Z,21.20
2019-06-20T02:09:43.756Z,21.20
2019-06-20T02:10:49.597Z,21.20
2019-06-20T02:11:54.347Z,21.20
2019-06-20T02:12:58.598Z,21.20
2019-06-20T02:14:07.302Z,21.20
2019-06-20T02:15:10.493Z,21.20
2019-06-20T02:16:15.200Z,21.20
2019-06-20T02:17:19.337Z,21.20
2019-06-20T02:18:23.988Z,21.20
2019-06-20T02:19:30.582Z,21.20
2019-06-20T02:20:56.178Z,21.20
2019-06-20T02:22:00.403Z,21.20
2019-06-20T02:23:05.787Z,21.20
2019-06-20T02:24:09.920Z,21.20
2019-06-20T02:25:16.182Z,21.20
2019-06-20T02:26:20.255Z,21.20
2019-06-20T02:27:24.918Z,21.20
2019-06-20T02:28:29.050Z,21.20
2019-06-20T02:29:33.798Z,21.10
2019-06-20T02:30:38.070Z,21.20
2019-06-20T02:31:42.862Z,21.20
2019-06-20T02:32:47.027Z,21.20
2019-06-20T02:33:51.772Z,21.20
2019-06-20T02:34:59.869Z,21.20
2019-06-20T02:36:04.630Z,21.20
2019-06-20T02:37:08.690Z,21.20
2019-06-20T02:38:13.403Z,21.20
2019-06-20T02:39:17.558Z,21.20
2019-06-20T02:40:22.395Z,21.20
2019-06-20T02:41:28.273Z,21.20
2019-06-20T02:42:33.072Z,21.20
2019-06-20T02:43:40.167Z,21.20
2019-06-20T02:44:47.699Z,21.20
2019-06-20T02:45:52.107Z,21.20
2019-06-20T02:46:56.965Z,21.20
2019-06-20T02:48:01.295Z,21.20
2019-06-20T02:49:06.280Z,21.20
2019-06-20T02:50:14.822Z,21.20
2019-06-20T02:51:24.977Z,21.20
2019-06-20T02:52:30.995Z,21.20
2019-06-20T02:53:35.782Z,21.20
2019-06-20T02:54:40.225Z,21.20
2019-06-20T02:55:46.364Z,21.20
2019-06-20T02:56:50.573Z,21.20
2019-06-20T02:57:55.455Z,21.20
2019-06-20T02:58:59.802Z,21.20
2019-06-20T03:00:07.364Z,21.20
2019-06-20T03:01:12.649Z,21.30
2019-06-20T03:02:17.164Z,21.30
2019-06-20T03:03:26.172Z,21.30
2019-06-20T03:04:27.683Z,21.30
2019-06-20T03:05:33.060Z,21.30
2019-06-20T03:06:40.505Z,21.30
2019-06-20T03:07:46.320Z,21.30
2019-06-20T03:08:51.157Z,21.30
2019-06-20T03:09:55.372Z,21.30
2019-06-20T03:11:00.192Z,21.30
2019-06-20T03:12:04.549Z,21.30
2019-06-20T03:13:09.631Z,21.30
2019-06-20T03:14:15.578Z,21.30
2019-06-20T03:15:20.408Z,21.30
2019-06-20T03:16:24.645Z,21.30
2019-06-20T03:17:29.560Z,21.30
2019-06-20T03:18:33.824Z,21.30
2019-06-20T03:19:38.812Z,21.30
2019-06-20T03:20:45.752Z,21.30
2019-06-20T03:21:50.591Z,21.30
2019-06-20T03:22:54.748Z,21.30
2019-06-20T03:23:59.457Z,21.30
2019-06-20T03:25:03.945Z,21.30
2019-06-20T03:26:08.752Z,21.30
2019-06-20T03:27:12.932Z,21.30
2019-06-20T03:28:17.664Z,21.30
2019-06-20T03:29:21.872Z,21.30
2019-06-20T03:30:26.543Z,21.30
2019-06-20T03:31:30.798Z,21.30
2019-06-20T03:32:36.970Z,21.30
2019-06-20T03:33:41.196Z,21.30
2019-06-20T03:34:45.862Z,21.30
2019-06-20T03:35:50.113Z,21.30
2019-06-20T03:36:54.850Z,21.40
2019-06-20T03:37:58.913Z,21.30
2019-06-20T03:39:03.389Z,21.30
2019-06-20T03:40:08.592Z,21.30
2019-06-20T03:41:14.861Z,21.40
2019-06-20T03:42:18.928Z,21.40
2019-06-20T03:43:23.690Z,21.40
2019-06-20T03:44:27.884Z,21.40
2019-06-20T03:45:32.538Z,21.40
2019-06-20T03:46:36.714Z,21.40
2019-06-20T03:47:41.477Z,21.40
2019-06-20T03:48:52.983Z,21.40
2019-06-20T03:49:57.669Z,21.40
2019-06-20T03:51:01.807Z,21.40
2019-06-20T03:52:06.506Z,21.40
2019-06-20T03:53:10.610Z,21.40
2019-06-20T03:54:15.270Z,21.40
2019-06-20T03:55:19.406Z,21.40
2019-06-20T03:56:24.143Z,21.40
2019-06-20T03:57:28.220Z,21.40
2019-06-20T03:58:33.043Z,21.50
2019-06-20T03:59:37.056Z,21.50
2019-06-20T04:00:41.872Z,21.50
2019-06-20T04:01:49.027Z,21.50
2019-06-20T04:02:52.375Z,21.50
2019-06-20T04:03:56.453Z,21.50
2019-06-20T04:05:01.132Z,21.50
2019-06-20T04:06:05.277Z,21.50
2019-06-20T04:07:09.996Z,21.50
2019-06-20T04:08:14.152Z,21.50
2019-06-20T04:09:18.897Z,21.50
2019-06-20T04:10:22.997Z,21.50
2019-06-20T04:11:27.489Z,21.60
2019-06-20T04:12:31.682Z,21.60
2019-06-20T04:13:36.456Z,21.60
2019-06-20T04:14:40.702Z,21.60
2019-06-20T04:15:45.436Z,21.60
2019-06-20T04:16:49.612Z,21.60
2019-06-20T04:17:54.228Z,21.60
2019-06-20T04:18:58.458Z,21.60
2019-06-20T04:20:03.278Z,21.70
2019-06-20T04:21:07.563Z,21.70
2019-06-20T04:22:12.274Z,21.70
2019-06-20T04:23:16.459Z,21.70
2019-06-20T04:24:21.199Z,21.70
2019-06-20T04:25:25.434Z,21.70
2019-06-20T04:26:33.031Z,21.70
2019-06-20T04:27:37.236Z,21.80
2019-06-20T04:28:42.116Z,21.80
2019-06-20T04:29:46.253Z,21.80
2019-06-20T04:30:51.012Z,21.80
2019-06-20T04:31:55.042Z,21.80
2019-06-20T04:32:59.941Z,21.80
2019-06-20T04:34:04.135Z,21.90
2019-06-20T04:35:08.986Z,21.90
2019-06-20T04:36:13.101Z,21.90
2019-06-20T04:37:17.877Z,22.00
2019-06-20T04:38:22.111Z,22.00
2019-06-20T04:39:26.861Z,22.10
2019-06-20T04:40:33.576Z,22.10
2019-06-20T04:41:38.283Z,22.10
2019-06-20T04:42:42.318Z,22.20
2019-06-20T04:43:47.684Z,22.20
2019-06-20T04:44:53.413Z,22.30
2019-06-20T04:45:59.202Z,22.30
2019-06-20T04:47:07.645Z,22.40
2019-06-20T04:48:12.305Z,22.40
2019-06-20T04:49:19.657Z,22.50
2019-06-20T04:50:22.945Z,22.60
2019-06-20T04:51:26.971Z,22.60
2019-06-20T04:52:31.670Z,22.60
2019-06-20T04:53:35.852Z,22.70
2019-06-20T04:54:40.523Z,22.80
2019-06-20T04:55:44.600Z,22.80
2019-06-20T04:56:49.391Z,22.90
2019-06-20T04:57:53.727Z,22.90
2019-06-20T04:58:58.500Z,23.00
2019-06-20T05:00:02.704Z,23.00
2019-06-20T05:01:07.545Z,23.10
2019-06-20T05:02:14.735Z,23.10
2019-06-20T05:03:19.487Z,23.20
2019-06-20T05:04:23.782Z,23.20
2019-06-20T05:05:28.282Z,23.30
2019-06-20T05:06:32.427Z,23.40
2019-06-20T05:07:37.221Z,23.40
2019-06-20T05:08:41.412Z,23.50
2019-06-20T05:09:46.105Z,23.50
2019-06-20T05:10:51.783Z,23.60
2019-06-20T05:11:56.516Z,23.70
2019-06-20T05:13:00.724Z,23.80
2019-06-20T05:14:05.652Z,23.80
2019-06-20T05:15:12.237Z,23.80
2019-06-20T05:16:16.743Z,23.90
2019-06-20T05:17:22.639Z,24.00
2019-06-20T05:18:27.408Z,24.00
2019-06-20T05:19:31.551Z,24.10
2019-06-20T05:20:36.377Z,24.10
2019-06-20T05:21:40.531Z,24.10
2019-06-20T05:22:45.335Z,24.20
2019-06-20T05:23:49.540Z,24.20
2019-06-20T05:24:54.250Z,24.20
2019-06-20T05:25:58.302Z,24.20
2019-06-20T05:27:02.995Z,24.20
2019-06-20T05:28:07.081Z,24.20
2019-06-20T05:29:11.885Z,24.20
2019-06-20T05:30:16.301Z,24.20
2019-06-20T05:31:22.173Z,24.20
2019-06-20T05:32:27.792Z,24.20
2019-06-20T05:33:35.111Z,24.20
2019-06-20T05:34:40.024Z,24.20
2019-06-20T05:35:47.573Z,24.20
2019-06-20T05:36:53.281Z,24.20
2019-06-20T05:37:57.771Z,24.20
2019-06-20T05:39:03.317Z,24.10
2019-06-20T05:40:11.702Z,24.10
2019-06-20T05:41:15.899Z,24.10
2019-06-20T05:42:20.973Z,24.10
2019-06-20T05:43:25.096Z,24.10
2019-06-20T05:44:29.753Z,24.20
2019-06-20T05:45:33.852Z,24.10
2019-06-20T05:46:40.936Z,24.10
2019-06-20T05:47:46.874Z,24.10
2019-06-20T05:48:52.651Z,24.10
2019-06-20T05:49:56.778Z,24.10
2019-06-20T05:51:01.399Z,24.10
2019-06-20T05:52:05.603Z,24.00
2019-06-20T05:53:11.221Z,24.00
2019-06-20T05:54:15.317Z,24.00
2019-06-20T05:55:20.202Z,24.00
2019-06-20T05:56:26.027Z,24.00
2019-06-20T05:57:34.746Z,24.00
2019-06-20T05:58:38.855Z,24.00
2019-06-20T05:59:49.752Z,24.00
2019-06-20T06:00:53.928Z,24.00
2019-06-20T06:01:58.602Z,24.00
2019-06-20T06:03:07.160Z,24.00
2019-06-20T06:04:14.715Z,24.00
2019-06-20T06:05:17.915Z,24.00
2019-06-20T06:06:22.619Z,24.00
2019-06-20T06:07:26.771Z,24.00
2019-06-20T06:08:33.034Z,24.00
2019-06-20T06:09:37.161Z,24.00
2019-06-20T06:10:41.877Z,24.10
2019-06-20T06:11:46.135Z,24.10
2019-06-20T06:12:50.874Z,24.10
2019-06-20T06:14:12.466Z,24.10
2019-06-20T06:15:15.713Z,24.10
2019-06-20T06:16:26.181Z,24.10
2019-06-20T06:17:26.333Z,24.10
2019-06-20T06:18:30.433Z,24.10
2019-06-20T06:19:35.097Z,24.20
2019-06-20T06:20:39.317Z,24.20
2019-06-20T06:21:44.101Z,24.20
2019-06-20T06:22:48.345Z,24.20
2019-06-20T06:23:55.328Z,24.20
2019-06-20T06:25:08.035Z,24.20
2019-06-20T06:26:14.035Z,24.20
2019-06-20T06:27:48.714Z,24.20
2019-06-20T06:28:50.495Z,24.20
2019-06-20T06:29:55.036Z,24.20
2019-06-20T06:31:06.717Z,24.20
2019-06-20T06:32:12.762Z,24.20
2019-06-20T06:33:17.179Z,24.20
2019-06-20T06:34:38.929Z,24.20
2019-06-20T06:35:33.657Z,24.20
2019-06-20T06:36:38.221Z,24.20
2019-06-20T06:37:42.710Z,24.20
2019-06-20T06:38:47.269Z,24.20
2019-06-20T06:39:51.695Z,24.20
2019-06-20T06:41:04.749Z,24.20
2019-06-20T06:42:14.810Z,24.20
2019-06-20T06:43:18.583Z,24.20
2019-06-20T06:44:31.594Z,24.20
2019-06-20T06:45:39.437Z,24.20
2019-06-20T06:47:02.091Z,24.30
2019-06-20T06:47:53.426Z,24.30
2019-06-20T06:49:06.123Z,24.40
2019-06-20T06:50:12.280Z,24.40
2019-06-20T06:51:29.956Z,24.40
2019-06-20T06:52:29.961Z,24.40
2019-06-20T06:53:43.394Z,24.50
2019-06-20T06:55:17.993Z,24.50
2019-06-20T06:56:38.764Z,24.60
2019-06-20T06:58:01.162Z,24.60
2019-06-20T06:59:11.035Z,24.60
2019-06-20T07:00:19.013Z,24.60
2019-06-20T07:01:25.226Z,24.70
2019-06-20T07:02:30.566Z,24.80
2019-06-20T07:04:20.104Z,24.70
2019-06-20T07:05:05.004Z,24.80
2019-06-20T07:06:25.855Z,24.80
2019-06-20T07:07:33.108Z,24.80
2019-06-20T07:08:38.029Z,24.90
2019-06-20T07:09:42.208Z,24.90
2019-06-20T07:10:47.030Z,25.00
2019-06-20T07:11:51.345Z,25.00
2019-06-20T07:12:56.084Z,25.00
2019-06-20T07:14:00.292Z,25.00
2019-06-20T07:15:07.436Z,25.10
2019-06-20T07:16:11.637Z,25.10
2019-06-20T07:17:16.395Z,25.10
2019-06-20T07:18:23.484Z,25.10
2019-06-20T07:19:28.360Z,25.10
2019-06-20T07:20:32.645Z,25.20
2019-06-20T07:21:38.827Z,25.20
2019-06-20T07:22:46.185Z,25.20
2019-06-20T07:23:56.838Z,25.30
2019-06-20T07:25:01.046Z,25.30
2019-06-20T07:26:05.993Z,25.40
2019-06-20T07:27:12.262Z,25.40
2019-06-20T07:28:17.711Z,25.40
2019-06-20T07:29:28.434Z,25.50
2019-06-20T07:30:34.513Z,25.50
2019-06-20T07:31:41.451Z,25.60
2019-06-20T07:32:59.353Z,25.60
2019-06-20T07:34:05.108Z,25.60
2019-06-20T07:35:15.605Z,25.60
2019-06-20T07:36:19.872Z,25.70
2019-06-20T07:37:28.048Z,25.70
2019-06-20T07:38:38.028Z,25.80
2019-06-20T07:39:45.231Z,25.80
2019-06-20T07:40:51.743Z,25.90
2019-06-20T07:41:56.508Z,25.90
2019-06-20T07:43:00.870Z,26.00
2019-06-20T07:44:05.592Z,26.00
2019-06-20T07:45:13.833Z,26.10
2019-06-20T07:46:23.354Z,26.10
2019-06-20T07:47:27.540Z,26.10
2019-06-20T07:48:33.523Z,26.20
2019-06-20T07:49:38.155Z,26.30
2019-06-20T07:50:44.516Z,26.30
2019-06-20T07:51:48.740Z,26.40
2019-06-20T07:53:01.814Z,26.40
2019-06-20T07:53:59.253Z,26.40
2019-06-20T07:55:06.986Z,26.50
2019-06-20T07:56:18.783Z,26.60
2019-06-20T07:57:29.235Z,26.60
2019-06-20T07:58:42.341Z,26.70
2019-06-20T07:59:49.791Z,26.70
2019-06-20T08:00:57.174Z,26.80
2019-06-20T08:02:05.022Z,26.80
2019-06-20T08:03:12.157Z,26.90
2019-06-20T08:04:19.067Z,26.90
2019-06-20T08:05:28.863Z,27.00
2019-06-20T08:06:38.495Z,27.00
2019-06-20T08:07:46.374Z,27.10
2019-06-20T08:08:56.698Z,27.10
2019-06-20T08:10:02.907Z,27.20
2019-06-20T08:11:10.410Z,27.20
2019-06-20T08:12:16.216Z,27.30
2019-06-20T08:13:26.003Z,27.30
2019-06-20T08:14:33.157Z,27.40
2019-06-20T08:15:37.958Z,27.40
2019-06-20T08:16:50.689Z,27.50
2019-06-20T08:17:52.604Z,27.50
2019-06-20T08:18:59.425Z,27.50
2019-06-20T08:20:08.188Z,27.60
2019-06-20T08:21:14.663Z,27.70
2019-06-20T08:22:32.471Z,27.70
2019-06-20T08:23:40.682Z,27.80
2019-06-20T08:24:45.909Z,27.80
2019-06-20T08:25:50.177Z,27.90
2019-06-20T08:26:57.559Z,27.90
2019-06-20T08:28:08.855Z,28.00
2019-06-20T08:29:21.096Z,28.00
2019-06-20T08:30:28.486Z,28.00
2019-06-20T08:31:38.669Z,28.10
2019-06-20T08:32:42.775Z,28.10
2019-06-20T08:33:49.953Z,28.10
2019-06-20T08:34:58.021Z,28.20
2019-06-20T08:36:11.577Z,28.20
2019-06-20T08:37:17.536Z,28.20
2019-06-20T08:38:26.975Z,28.20
2019-06-20T08:39:29.857Z,28.30
2019-06-20T08:40:37.711Z,28.30
2019-06-20T08:41:41.838Z,28.30
2019-06-20T08:42:46.811Z,28.30
2019-06-20T08:43:50.914Z,28.40
2019-06-20T08:44:59.526Z,28.40
2019-06-20T08:46:04.512Z,28.40
2019-06-20T08:47:10.255Z,28.50
2019-06-20T08:48:14.519Z,28.50
2019-06-20T08:49:19.348Z,28.50
2019-06-20T08:50:24.883Z,28.50
2019-06-20T08:51:33.429Z,28.60
2019-06-20T08:52:37.768Z,28.60
2019-06-20T08:53:43.553Z,28.60
2019-06-20T08:54:47.747Z,28.60
2019-06-20T08:55:52.476Z,28.70
2019-06-20T08:56:59.043Z,28.70
2019-06-20T08:58:03.507Z,28.70
2019-06-20T08:59:20.697Z,28.70
2019-06-20T09:00:16.877Z,28.70
2019-06-20T09:01:21.178Z,28.70
2019-06-20T09:02:37.332Z,28.80
2019-06-20T09:03:48.452Z,28.80
2019-06-20T09:05:00.299Z,28.80
2019-06-20T09:05:58.269Z,28.80
2019-06-20T09:08:12.131Z,28.80
2019-06-20T09:09:32.114Z,28.80
2019-06-20T09:10:36.724Z,28.80
2019-06-20T09:11:41.423Z,28.80
2019-06-20T09:12:53.677Z,28.80
2019-06-20T09:13:59.232Z,28.80
2019-06-20T09:15:07.559Z,28.80
2019-06-20T09:16:24.258Z,28.80
2019-06-20T09:17:20.643Z,28.90
2019-06-20T09:18:25.316Z,28.80
2019-06-20T09:19:32.482Z,28.80
2019-06-20T09:20:37.858Z,28.80
2019-06-20T09:21:42.625Z,28.80
2019-06-20T09:22:48.570Z,28.80
2019-06-20T09:23:54.119Z,28.80
2019-06-20T09:24:59.229Z,28.70
2019-06-20T09:26:05.172Z,28.70
2019-06-20T09:27:09.852Z,28.70
2019-06-20T09:28:14.101Z,28.70
2019-06-20T09:29:19.035Z,28.60
2019-06-20T09:30:27.384Z,28.60
2019-06-20T09:31:31.216Z,28.60
2019-06-20T09:32:36.944Z,28.60
2019-06-20T09:33:41.738Z,28.60
2019-06-20T09:34:46.073Z,28.60
2019-06-20T09:35:52.244Z,28.50
2019-06-20T09:36:57.543Z,28.50
2019-06-20T09:38:03.462Z,28.50
2019-06-20T09:39:08.016Z,28.40
2019-06-20T09:40:13.692Z,28.40
2019-06-20T09:41:23.246Z,28.30
2019-06-20T09:42:27.396Z,28.30
2019-06-20T09:43:34.055Z,28.20
2019-06-20T09:44:39.896Z,28.20
2019-06-20T09:45:44.112Z,28.20
2019-06-20T09:46:49.812Z,28.10
2019-06-20T09:47:55.943Z,28.10
2019-06-20T09:49:07.456Z,28.10
2019-06-20T09:50:13.616Z,28.00
2019-06-20T09:51:19.972Z,28.00
2019-06-20T09:52:24.359Z,27.90
2019-06-20T09:53:29.312Z,27.90
2019-06-20T09:54:37.830Z,27.90
2019-06-20T09:55:58.368Z,27.90
2019-06-20T09:57:42.260Z,27.90
2019-06-20T10:00:51.111Z,27.80
2019-06-20T10:02:13.835Z,27.80
2019-06-20T10:03:12.998Z,27.80
2019-06-20T10:04:22.715Z,27.90
2019-06-20T10:05:27.103Z,27.90
2019-06-20T10:06:34.839Z,27.90
2019-06-20T10:07:39.134Z,27.90
2019-06-20T10:08:52.353Z,28.00
2019-06-20T10:09:56.773Z,28.00
2019-06-20T10:11:13.491Z,28.00
2019-06-20T10:12:17.038Z,28.10
2019-06-20T10:13:21.813Z,28.00
2019-06-20T10:14:26.062Z,28.10
2019-06-20T10:15:38.501Z,28.10
2019-06-20T10:16:47.464Z,28.00
2019-06-20T10:17:50.791Z,28.00
2019-06-20T10:18:55.014Z,28.00
2019-06-20T10:20:03.217Z,28.00
2019-06-20T10:21:13.873Z,28.00
2019-06-20T10:22:20.254Z,27.90
2019-06-20T10:23:26.170Z,27.90
2019-06-20T10:24:31.860Z,27.90
2019-06-20T10:25:40.890Z,27.90
2019-06-20T10:26:44.899Z,27.90
2019-06-20T10:27:51.477Z,27.80
2019-06-20T10:28:58.275Z,27.80
2019-06-20T10:30:14.084Z,27.80
2019-06-20T10:31:08.819Z,27.80
2019-06-20T10:32:12.979Z,27.80
2019-06-20T10:33:23.269Z,27.80
2019-06-20T10:34:31.135Z,27.80
2019-06-20T10:35:38.259Z,27.80
2019-06-20T10:36:48.053Z,27.80
2019-06-20T10:37:54.926Z,27.80
2019-06-20T10:39:02.001Z,27.70
2019-06-20T10:40:07.662Z,27.70
2019-06-20T10:41:11.837Z,27.70
2019-06-20T10:42:16.657Z,27.70
2019-06-20T10:43:20.692Z,27.70
2019-06-20T10:44:25.386Z,27.70
2019-06-20T10:45:29.928Z,27.70
2019-06-20T10:46:34.679Z,27.80
2019-06-20T10:47:38.881Z,27.80
2019-06-20T10:48:44.365Z,27.80
2019-06-20T10:49:50.289Z,27.90
2019-06-20T10:50:56.161Z,28.00
2019-06-20T10:52:00.378Z,28.00
2019-06-20T10:53:05.273Z,28.00
2019-06-20T10:54:10.792Z,28.10
2019-06-20T10:55:15.845Z,28.10
2019-06-20T10:56:19.938Z,28.20
2019-06-20T10:57:24.664Z,28.20
2019-06-20T10:58:28.819Z,28.30
2019-06-20T10:59:33.576Z,28.30
2019-06-20T11:00:37.693Z,28.40
2019-06-20T11:01:42.882Z,28.40
2019-06-20T11:02:49.115Z,28.50
2019-06-20T11:03:53.950Z,28.50
2019-06-20T11:04:58.045Z,28.50
2019-06-20T11:06:02.788Z,28.60
2019-06-20T11:07:06.939Z,28.60
2019-06-20T11:08:11.577Z,28.60
2019-06-20T11:09:15.715Z,28.70
2019-06-20T11:10:22.153Z,28.80
2019-06-20T11:11:26.257Z,28.80
2019-06-20T11:12:42.922Z,28.90
2019-06-20T11:13:38.990Z,29.00
2019-06-20T11:14:44.148Z,29.10
2019-06-20T11:15:48.334Z,29.10
2019-06-20T11:16:53.070Z,29.20
2019-06-20T11:17:57.235Z,29.20
2019-06-20T11:19:01.935Z,29.20
2019-06-20T11:20:07.328Z,29.30
2019-06-20T11:21:11.983Z,29.30
2019-06-20T11:22:17.580Z,29.30
2019-06-20T11:23:22.249Z,29.40
2019-06-20T11:24:26.350Z,29.40
2019-06-20T11:25:31.132Z,29.40
2019-06-20T11:26:37.752Z,29.40
2019-06-20T11:27:42.697Z,29.40
2019-06-20T11:28:46.849Z,29.50
2019-06-20T11:29:53.071Z,29.50
2019-06-20T11:31:00.448Z,29.50
2019-06-20T11:32:03.512Z,29.50
2019-06-20T11:33:07.658Z,29.50
2019-06-20T11:34:12.299Z,29.50
2019-06-20T11:35:16.645Z,29.60
2019-06-20T11:36:21.333Z,29.60
2019-06-20T11:37:25.405Z,29.60
2019-06-20T11:38:30.116Z,29.70
2019-06-20T11:39:35.674Z,29.70
2019-06-20T11:40:41.545Z,29.80
2019-06-20T11:41:45.979Z,29.90
2019-06-20T11:42:50.774Z,30.00
2019-06-20T11:43:54.883Z,30.10
2019-06-20T11:44:59.554Z,30.20
2019-06-20T11:46:03.685Z,30.20
2019-06-20T11:47:08.339Z,30.30
2019-06-20T11:48:12.403Z,30.30
2019-06-20T11:49:17.180Z,30.40
2019-06-20T11:50:22.109Z,30.40
2019-06-20T11:51:26.764Z,30.40
2019-06-20T11:52:35.282Z,30.40
2019-06-20T11:53:38.495Z,30.50
2019-06-20T11:54:42.734Z,30.50
2019-06-20T11:55:47.439Z,30.50
2019-06-20T11:56:51.503Z,30.50
2019-06-20T11:57:56.226Z,30.50
2019-06-20T11:59:00.343Z,30.50
2019-06-20T12:00:07.038Z,30.50
2019-06-20T12:01:11.125Z,30.40
2019-06-20T12:02:16.420Z,30.40
2019-06-20T12:03:20.605Z,30.30
2019-06-20T12:04:26.354Z,30.30
2019-06-20T12:05:32.865Z,30.20
2019-06-20T12:06:38.430Z,30.20
2019-06-20T12:07:45.340Z,30.10
2019-06-20T12:08:49.784Z,30.00
2019-06-20T12:09:56.595Z,30.00
2019-06-20T12:11:01.272Z,30.00
2019-06-20T12:12:05.413Z,29.90
2019-06-20T12:13:10.078Z,29.80
2019-06-20T12:14:14.140Z,29.80
2019-06-20T12:15:20.850Z,29.70
2019-06-20T12:16:24.978Z,29.60
2019-06-20T12:17:29.697Z,29.60
2019-06-20T12:18:33.711Z,29.60
2019-06-20T12:19:39.711Z,29.50
2019-06-20T12:20:44.483Z,29.50
2019-06-20T12:21:49.309Z,29.40
2019-06-20T12:22:54.758Z,29.40
2019-06-20T12:23:59.442Z,29.30
2019-06-20T12:25:07.480Z,29.30
2019-06-20T12:26:12.125Z,29.20
2019-06-20T12:27:16.230Z,29.20
2019-06-20T12:28:20.902Z,29.20
2019-06-20T12:29:25.113Z,29.20
2019-06-20T12:30:30.412Z,29.10
2019-06-20T12:31:34.533Z,29.10
2019-06-20T12:32:40.522Z,29.10
2019-06-20T12:33:45.188Z,29.10
2019-06-20T12:34:50.477Z,29.10
2019-06-20T12:35:55.227Z,29.10
2019-06-20T12:36:59.903Z,29.00
2019-06-20T12:38:04.059Z,29.00
2019-06-20T12:39:08.952Z,29.00
2019-06-20T12:40:14.119Z,29.00
2019-06-20T12:41:18.856Z,28.90
2019-06-20T12:42:22.962Z,28.90
2019-06-20T12:43:27.607Z,28.90
2019-06-20T12:44:32.996Z,28.90
2019-06-20T12:45:40.013Z,28.90
2019-06-20T12:46:44.925Z,28.90
2019-06-20T12:47:50.103Z,28.90
2019-06-20T12:48:54.421Z,28.90
2019-06-20T12:49:59.068Z,28.90
2019-06-20T12:51:03.309Z,28.90
2019-06-20T12:52:08.066Z,28.90
2019-06-20T12:53:13.746Z,28.90
2019-06-20T12:54:18.414Z,28.90
2019-06-20T12:55:22.460Z,28.90
2019-06-20T12:56:28.842Z,29.00
2019-06-20T12:57:32.932Z,29.00
2019-06-20T12:58:39.450Z,29.00
2019-06-20T12:59:44.572Z,29.00
2019-06-20T13:00:50.542Z,29.10
2019-06-20T13:01:54.674Z,29.00
2019-06-20T13:02:59.378Z,29.10
2019-06-20T13:04:05.005Z,29.10
2019-06-20T13:05:10.072Z,29.20
2019-06-20T13:06:14.060Z,29.10
2019-06-20T13:07:20.983Z,29.20
2019-06-20T13:08:25.711Z,29.20
2019-06-20T13:09:30.418Z,29.20
2019-06-20T13:10:34.559Z,29.20
2019-06-20T13:11:40.668Z,29.20
2019-06-20T13:12:46.786Z,29.30
2019-06-20T13:13:53.029Z,29.30
2019-06-20T13:14:57.179Z,29.20
2019-06-20T13:16:01.850Z,29.30
2019-06-20T13:17:05.992Z,29.30
2019-06-20T13:18:10.794Z,29.40
2019-06-20T13:19:14.922Z,29.40
2019-06-20T13:20:19.911Z,29.40
2019-06-20T13:21:23.989Z,29.40
2019-06-20T13:22:28.832Z,29.40
2019-06-20T13:23:32.957Z,29.50
2019-06-20T13:24:37.934Z,29.50
2019-06-20T13:25:44.471Z,29.50
2019-06-20T13:26:50.706Z,29.50
2019-06-20T13:27:55.003Z,29.50
2019-06-20T13:29:04.091Z,29.50
2019-06-20T13:30:07.490Z,29.50
2019-06-20T13:31:12.135Z,29.50
2019-06-20T13:32:16.281Z,29.60
2019-06-20T13:33:21.026Z,29.60
2019-06-20T13:34:25.261Z,29.60
2019-06-20T13:35:30.032Z,29.60
2019-06-20T13:36:34.267Z,29.60
2019-06-20T13:37:40.194Z,29.60
2019-06-20T13:38:44.751Z,29.60
2019-06-20T13:39:50.168Z,29.60
2019-06-20T13:40:54.449Z,29.60
2019-06-20T13:41:59.206Z,29.60
2019-06-20T13:43:03.346Z,29.60
2019-06-20T13:44:08.144Z,29.60
2019-06-20T13:45:23.305Z,29.70
2019-06-20T13:46:27.951Z,29.70
2019-06-20T13:47:32.038Z,29.70
2019-06-20T13:48:36.683Z,29.70
2019-06-20T13:49:41.519Z,29.70
2019-06-20T13:50:47.449Z,29.80
2019-06-20T13:51:51.529Z,29.80
2019-06-20T13:52:56.331Z,29.80
2019-06-20T13:54:00.490Z,29.90
2019-06-20T13:55:07.381Z,29.90
2019-06-20T13:56:11.586Z,29.90
2019-06-20T13:57:16.228Z,29.90
2019-06-20T13:58:20.365Z,30.00
2019-06-20T13:59:25.025Z,30.00
2019-06-20T14:00:29.320Z,30.00
2019-06-20T14:01:34.086Z,30.00
2019-06-20T14:02:39.443Z,30.10
2019-06-20T14:03:45.699Z,30.10
2019-06-20T14:04:50.808Z,30.20
2019-06-20T14:05:55.510Z,30.20
2019-06-20T14:06:59.609Z,30.30
2019-06-20T14:08:04.423Z,30.30
2019-06-20T14:09:08.586Z,30.40
2019-06-20T14:10:14.167Z,30.60
2019-06-20T14:11:18.267Z,30.70